KDYS

Dyess AFB Airport

Abilene, Texas, USA
METAR KDYS 151256Z AUTO 31008KT 10SM CLR 00/M05 A3033 RMK AO2 SLP282 T10011047 $
Observed Flight Rules
Dec-15 @ 12:56 UTC (an hour ago) Visual Flight Rules
Wind Visibility Clouds
310° at 8 knots 10 miles
  • Clear skies
Temperatures Readings
Current -0°C / 32°F
Dewpoint -5°C / 23°F
Humidity 69%
Altimeter 30.33" Hg
Pressure 1028.2 hPa
Elevation 545
METAR KDYS 151256Z AUTO 31008KT 10SM CLR 00/M05 A3033 RMK AO2 SLP282 T10011047 $
Observed Flight Rules
Dec-15 @ 12:56 UTC
(an hour ago)
VFR
Wind Visibility
310° at 8 knots 10 miles
Clouds
  • Clear skies
Temperature Dewpoint
-0°C / 32°F -5°C / 23°F
Humidity Altimeter Pressure
69% 30.33" Hg 1028.2 hPa